KMWL/MWL METAR and TAF weather

Enter ICAO airport designator
Station Type Date Time Source
KMWL METAR 2019/08/24 06:53 UTC NOAA

KMWL 240653Z AUTO 02004KT 10SM CLR 23/22 A2995 RMK AO2 SLP124 T02330217


Station Type Date Time Source
KMWL Decoded METAR 2019/08/24 06:53 UTC NOAA

Station name not available
Aug 24, 2019 - 02:53 AM EDT / 2019.08.24 0653 UTC
Wind: from the NNE (020 degrees) at 5 MPH (4 KT):0
Visibility: 10 mile(s):0
Sky conditions: clear
Temperature: 73.9 F (23.3 C)
Dew Point: 71.1 F (21.7 C)
Relative Humidity: 90%
Pressure (altimeter): 29.95 in. Hg (1014 hPa)
ob: KMWL 240653Z AUTO 02004KT 10SM CLR 23/22 A2995 RMK AO2 SLP124 T02330217
cycle: 7

Station Type Date Time Source
KMWL TAF UTC NOAA

Error!

Example: see airport list